Valentino Morelli

Chefscout - Napoli
22 Feb 2028
Dienstag
Verarbeitung

Persönlichkeit

Anpassungsfähigkeit (15) Ehrgeiz (18) Kontroverse (17) Loyalität (9) Druck (3) Professionalität (17) Fairness (9) Temperament (2)

Profil

Trainerstil Demokratisch
Lizenz Kontinentale C
Entschlossenheit 8
Menschenführung 14
Motivation 7
Disziplin 9
Arbeitszufriedenheit
100%
Ermüdung
0%
Rolle Chefscout
Gehalt 39.4K p/W
Vertrag 14.03.2030

Leistung

Verhalten Gut
Trainingseffektivität
70%
Spielerentwicklung
35%
Verletzungsprävention
60%
Taktische Umsetzung
45%

Letzte Ereignisse

Spieler begutachtet jetzt
Nahm an einer Scouting-Besprechung teil jetzt
Empfahl ein Transferziel jetzt
Nahm an einer Scouting-Besprechung teil 7T her
Spieler begutachtet 7T her
Spieler begutachtet 7T her
Spieler begutachtet 7T her
Spieler begutachtet 7T her

Aktuell beobachtet

115
Spieler Verein Status Fähigkeit Vertrauen Beobachtet Zuletzt beobachtet Letzte Stimme
Assane Diao Lazio Aktiv 155 / 151 40% 7 21.02.2028 -
Giacomo Raspadori Atalanta Aktiv 154 / 148 40% 3 21.02.2028 -
Gabriel Martinelli Brighton Aktiv 169 / 165 40% 4 20.02.2028 -
Ez Abde Girona Aktiv 157 / 155 40% 3 20.02.2028 -
Moise Kean Fiorentina Aktiv 161 / 153 40% 1 20.02.2028 -
Dango Ouattara Brentford Aktiv 154 / 148 40% 3 18.02.2028 -
Kenan Yıldız Juventus Aktiv 167 / 167 40% 3 16.02.2028 -
Dušan Vlahović Juventus Aktiv 163 / 160 40% 6 15.02.2028 -
Rasmus Højlund Lazio Aktiv 159 / 154 40% 2 15.02.2028 -
Jonathan David Juventus Aktiv 157 / 158 40% 2 14.02.2028 -
Charles De Ketelaere Palermo Aktiv 164 / 155 40% 1 14.02.2028 -
Loïs Openda Juventus Aktiv 157 / 150 40% 3 11.02.2028 -
Nico Paz Real Sociedad Aktiv 167 / 169 40% 1 11.02.2028 -
Nicolás González Juventus Aktiv 161 / 161 40% 1 09.02.2028 -
Gonçalo Ramos AC Milan Aktiv 157 / 151 40% 1 07.02.2028 -
Sascha Britschgi Padova Aktiv 122 / 122 40% 1 10.01.2028 -
Guy Noël Zohouri RC Strasbourg Aktiv 123 / 126 40% 1 10.01.2028 -
Daniel Banjaqui Benfica Aktiv 122 / 126 40% 1 02.01.2028 -
Dmitry Pestryakov Dinamo Moscow Aktiv 119 / 127 40% 1 02.01.2028 -
Victor Osimhen Manchester United Verloren 160 / 160 90% 1 01.01.2028 -
Pierre Kalulu Juventus Aktiv 159 / 162 40% 27 31.12.2027 -
Youssouf Fofana AC Milan Aktiv 160 / 152 40% 1 31.12.2027 -
Carlos Augusto Inter Aktiv 155 / 150 40% 1 31.12.2027 -
Lorenzo Panaioli Livorno Aktiv 99 / 99 30% 1 / 1m 03.11.2027 -
Alessandro Capello Arezzo Aktiv 116 / 116 42% 1 / 1m 03.11.2027 -
Filippo Vesentini Union Brescia Aktiv 108 / 108 30% 1 / 1m 03.11.2027 -
Alessandro Sersanti Modena Aktiv 129 / 133 86% 1 30.08.2027 Befürworten
Christ Inao Oulaï Fiorentina Aktiv 134 / 148 40% 1 21.06.2027 -
Josh King Chelsea Aktiv 141 / 142 40% 2 01.06.2027 -
Joško Gvardiol Napoli Verhandlung 162 / 163 90% 1 01.06.2027 Befürworten
Rafael Leão Girona Aktiv 160 / 160 66% 1 01.06.2027 Befürworten
Samuel Lucero Defensa y Justicia Aktiv 111 / 119 40% 1 01.06.2027 -
Curtis Jones Inter Aktiv 161 / 150 40% 32 31.05.2027 -
Federico Dimarco Inter Aktiv 168 / 164 40% 41 29.05.2027 -
Ezra Mayers West Ham United Aktiv 119 / 122 40% 1 28.05.2027 -
Luka Vušković Manchester United Aktiv 139 / 151 40% 1 28.05.2027 -
Alessandro Buongiorno Sassuolo Aktiv 159 / 161 40% 10 24.05.2027 -
Trevoh Chalobah Como Aktiv 153 / 158 40% 12 24.05.2027 -
Nicolò Rovella Lazio Aktiv 154 / 152 40% 11 19.05.2027 -
Nuno Tavares Lazio Aktiv 150 / 143 40% 2 19.05.2027 -
Karim Coulibaly RC Strasbourg Aktiv 119 / 127 40% 1 10.05.2027 -
Juan Giménez Celta Aktiv 114 / 118 40% 1 10.05.2027 -
Andrea Cambiaso Juventus Aktiv 155 / 145 40% 10 26.04.2027 -
Matteo Gabbia AC Milan Aktiv 150 / 145 40% 13 26.04.2027 -
Mario Gila AC Milan Aktiv 152 / 154 40% 10 26.04.2027 -
Kenneth Taylor Lazio Aktiv 147 / 148 40% 3 25.04.2027 -
Jofre Torrents Ajax Aktiv 122 / 132 40% 2 07.04.2027 -
Matvey Kislyak CSKA Moscow Aktiv 137 / 139 40% 1 07.04.2027 -
Alexandro Maidana Talleres Aktiv 116 / 121 40% 1 05.04.2027 -
Juan Rodríguez Cagliari Aktiv 120 / 129 40% 2 30.03.2027 -
Veljko Milosavljević Aston Villa Aktiv 131 / 139 40% 1 19.03.2027 -
Raoul Bellanova Atalanta Aktiv 153 / 144 40% 5 05.03.2027 -
Abdoulaye Kanté Al-Ettifaq Aktiv 116 / 127 40% 1 03.03.2027 -
Dean Huijsen Villarreal Aktiv 143 / 151 40% 1 03.03.2027 -
Giorgio Scalvini Atalanta Aktiv 149 / 154 40% 3 28.02.2027 -
Alessandro Bastoni Inter Aktiv 168 / 168 40% 7 23.02.2027 -
Diogo Costa Manchester City Verhandlung 160 / 160 95% 1 01.01.2027 Befürworten
Mandla Mahlangu Ajax Cape Town Aktiv 104 / 100 40% 2 28.12.2026 -
Bernat Guiu Virtus Entella Aktiv 120 / 116 40% 1 28.12.2026 Mehr Infos nötig
Tomás Durso Atlético Tucumán Aktiv 124 / 124 40% 1 23.12.2026 -
Roman Celentano FC Cincinnati Aktiv 124 / 128 40% 1 22.12.2026 -
Mateusz Kochalski Dynamo Kyiv Aktiv 131 / 138 40% 1 22.12.2026 -
Franco Israel Torino Aktiv 135 / 136 40% 2 21.12.2026 -
Ľubomír Belko Viking Aktiv 125 / 129 40% 1 21.12.2026 -
Mateo Pellegrino Fiorentina Aktiv 139 / 138 40% 2 19.12.2026 -
Yoan Bonny Inter Aktiv 143 / 148 40% 3 18.12.2026 -
Luciano Gondou CSKA Moscow Aktiv 125 / 131 40% 1 18.12.2026 -
Themba Ngcobo SuperSport United Aktiv 119 / 123 40% 2 14.12.2026 -
Shahriar Dejagah Tractor Aktiv 124 / 125 40% 2 10.12.2026 -
Edoardo Motta Lazio Aktiv 122 / 117 40% 1 09.12.2026 -
Nicolò Zaniolo Udinese Aktiv 141 / 135 40% 2 03.12.2026 -
Bamba Dieng Crvena Zvezda Aktiv 130 / 127 40% 1 02.12.2026 -
Fabián Paris Saint-Germain Aktiv 167 / 161 40% 13 30.11.2026 -
Zakaria Aboukhlal Torino Aktiv 136 / 141 40% 4 24.11.2026 -
Brayan León Mamelodi Sundowns Aktiv 116 / 114 40% 1 19.11.2026 -
David Miculescu FCSB Aktiv 119 / 114 40% 1 09.11.2026 -
Randal Kolo Muani Juventus Aktiv 147 / 145 40% 1 09.11.2026 -
Marco Asensio Fenerbahce Aktiv 162 / 146 40% 4 06.11.2026 -
Ammar Ramadan DAC Dunajska Streda Aktiv 129 / 123 40% 1 03.11.2026 -
Kévin Denkey FC Cincinnati Aktiv 134 / 120 40% 2 25.10.2026 -
Dejan Kulusevski Tottenham Aktiv 167 / 171 40% 7 23.10.2026 -
Martín Zubimendi Arsenal Aktiv 164 / 156 40% 7 23.10.2026 -
Youri Tielemans Manchester United Aktiv 158 / 167 40% 7 21.10.2026 -
Kai Havertz Arsenal Aktiv 163 / 162 40% 6 21.10.2026 -
Andrea Pinamonti Lazio Aktiv 142 / 137 40% 2 21.10.2026 -
Ramiro Ruiz Rodríguez Atlético Tucumán Aktiv 128 / 119 40% 1 20.10.2026 -
Georginio Rutter Brighton Aktiv 147 / 142 40% 1 19.10.2026 -
Bruno Guimarães Arsenal Aktiv 166 / 162 40% 5 16.10.2026 -
Declan Rice Arsenal Aktiv 185 / 188 40% 2 14.10.2026 -
Nicolò Tresoldi Club Brugge Aktiv 135 / 129 40% 1 14.10.2026 -
Ryan Gravenberch Liverpool Aktiv 156 / 163 40% 4 12.10.2026 -
Alexis Mac Allister Liverpool Aktiv 164 / 163 40% 6 12.10.2026 -
Martin Ødegaard Arsenal Aktiv 175 / 181 40% 4 11.10.2026 -
João Pedro Chelsea Aktiv 146 / 149 40% 1 10.10.2026 -
Bradley Barcola Liverpool Aktiv 157 / 162 40% 1 10.10.2026 -
Nico González Newcastle United Aktiv 157 / 156 40% 2 08.10.2026 -
Jeremie Frimpong Liverpool Aktiv 159 / 155 40% 1 05.10.2026 -
Iliman N'Diaye Everton Aktiv 155 / 153 40% 2 03.10.2026 -
Adnan Courtois KV Oostende Aktiv 136 / 132 40% 1 03.10.2026 -
Dominik Szoboszlai Liverpool Aktiv 161 / 162 40% 4 02.10.2026 -
Rayan Cherki Manchester City Aktiv 163 / 166 40% 3 21.09.2026 -
Florian Wirtz Liverpool Aktiv 165 / 174 40% 5 19.09.2026 -
Hugo Ekitiké Liverpool Aktiv 156 / 166 40% 1 17.09.2026 -
Robin Roefs Sunderland Aktiv 140 / 146 40% 1 12.09.2026 -
Radek Vítek Middlesbrough Aktiv 131 / 133 40% 1 12.09.2026 -
Ousmane Dembélé Paris Saint-Germain Aktiv 186 / 181 40% 2 09.09.2026 -
Matheus Cunha Manchester United Aktiv 154 / 151 40% 1 08.09.2026 -
Jorrel Hato Chelsea Aktiv 146 / 157 40% 2 25.08.2026 -
Christos Mouzakitis Hull City Aktiv 128 / 135 40% 1 25.08.2026 -
Nico O'Reilly Manchester City Aktiv 151 / 158 40% 1 25.08.2026 -
Khvicha Kvaratskhelia Paris Saint-Germain Aktiv 161 / 170 40% 1 17.08.2026 -
Adam Wharton Crystal Palace Aktiv 150 / 150 40% 1 13.08.2026 -
Jack Hinshelwood Brighton Aktiv 141 / 145 40% 2 09.08.2026 -
Noah Sadiki Sunderland Aktiv 139 / 140 40% 2 07.08.2026 -
João Neves Paris Saint-Germain Aktiv 166 / 161 40% 1 04.08.2026 -